sensor_id;sensor_type;location;lat;lon;timestamp;temperature;humidity
33328;DHT22;19692;52.998;9.116;2022-08-19T00:01:31;18.30;99.90
33328;DHT22;19692;52.998;9.116;2022-08-19T00:03:59;18.20;99.90
33328;DHT22;19692;52.998;9.116;2022-08-19T00:06:27;18.30;99.90
33328;DHT22;19692;52.998;9.116;2022-08-19T00:08:55;18.40;99.90
33328;DHT22;19692;52.998;9.116;2022-08-19T00:11:21;18.40;99.90
33328;DHT22;19692;52.998;9.116;2022-08-19T00:13:48;18.40;99.90
33328;DHT22;19692;52.998;9.116;2022-08-19T00:16:16;18.50;99.90
33328;DHT22;19692;52.998;9.116;2022-08-19T00:18:47;18.60;99.90
33328;DHT22;19692;52.998;9.116;2022-08-19T00:21:13;18.60;99.90
33328;DHT22;19692;52.998;9.116;2022-08-19T00:23:39;18.60;99.90
33328;DHT22;19692;52.998;9.116;2022-08-19T00:26:06;18.70;99.90
33328;DHT22;19692;52.998;9.116;2022-08-19T00:28:33;18.70;99.90
33328;DHT22;19692;52.998;9.116;2022-08-19T00:31:02;18.70;99.90
33328;DHT22;19692;52.998;9.116;2022-08-19T00:33:30;18.70;99.90
33328;DHT22;19692;52.998;9.116;2022-08-19T00:36:05;18.70;99.90
33328;DHT22;19692;52.998;9.116;2022-08-19T00:38:33;18.70;99.90
33328;DHT22;19692;52.998;9.116;2022-08-19T00:41:00;18.60;99.90
33328;DHT22;19692;52.998;9.116;2022-08-19T00:43:27;18.60;99.90
33328;DHT22;19692;52.998;9.116;2022-08-19T00:45:53;18.50;99.90
33328;DHT22;19692;52.998;9.116;2022-08-19T00:48:20;18.50;99.90
33328;DHT22;19692;52.998;9.116;2022-08-19T00:50:48;18.40;99.90
33328;DHT22;19692;52.998;9.116;2022-08-19T00:53:20;18.50;99.90
33328;DHT22;19692;52.998;9.116;2022-08-19T00:55:49;18.50;99.90
33328;DHT22;19692;52.998;9.116;2022-08-19T00:58:19;18.60;99.90
33328;DHT22;19692;52.998;9.116;2022-08-19T01:00:47;18.50;99.90
33328;DHT22;19692;52.998;9.116;2022-08-19T01:03:17;18.50;99.90
33328;DHT22;19692;52.998;9.116;2022-08-19T01:05:45;18.50;99.90
33328;DHT22;19692;52.998;9.116;2022-08-19T01:08:12;18.60;99.90
33328;DHT22;19692;52.998;9.116;2022-08-19T01:10:44;18.60;99.90
33328;DHT22;19692;52.998;9.116;2022-08-19T01:13:17;18.60;99.90
33328;DHT22;19692;52.998;9.116;2022-08-19T01:15:53;18.70;99.90
33328;DHT22;19692;52.998;9.116;2022-08-19T01:18:21;18.80;99.90
33328;DHT22;19692;52.998;9.116;2022-08-19T01:20:48;18.80;99.90
33328;DHT22;19692;52.998;9.116;2022-08-19T01:23:14;18.80;99.90
33328;DHT22;19692;52.998;9.116;2022-08-19T01:25:50;18.70;99.90
33328;DHT22;19692;52.998;9.116;2022-08-19T01:28:25;18.80;99.90
33328;DHT22;19692;52.998;9.116;2022-08-19T01:30:53;18.80;99.90
33328;DHT22;19692;52.998;9.116;2022-08-19T01:33:19;18.80;99.90
33328;DHT22;19692;52.998;9.116;2022-08-19T01:35:46;18.80;99.90
33328;DHT22;19692;52.998;9.116;2022-08-19T01:38:21;18.70;99.90
33328;DHT22;19692;52.998;9.116;2022-08-19T01:40:49;18.70;99.90
33328;DHT22;19692;52.998;9.116;2022-08-19T01:43:15;18.80;99.90
33328;DHT22;19692;52.998;9.116;2022-08-19T01:45:41;18.80;99.90
33328;DHT22;19692;52.998;9.116;2022-08-19T01:48:08;18.80;99.90
33328;DHT22;19692;52.998;9.116;2022-08-19T01:50:35;18.80;99.90
33328;DHT22;19692;52.998;9.116;2022-08-19T01:53:03;18.80;99.90
33328;DHT22;19692;52.998;9.116;2022-08-19T01:55:31;18.80;99.90
33328;DHT22;19692;52.998;9.116;2022-08-19T01:57:59;18.80;99.90
33328;DHT22;19692;52.998;9.116;2022-08-19T02:00:28;18.80;99.90
33328;DHT22;19692;52.998;9.116;2022-08-19T02:02:55;18.80;99.90
33328;DHT22;19692;52.998;9.116;2022-08-19T02:05:21;18.90;99.90
33328;DHT22;19692;52.998;9.116;2022-08-19T02:07:47;18.80;99.90
33328;DHT22;19692;52.998;9.116;2022-08-19T02:10:19;18.80;99.90
33328;DHT22;19692;52.998;9.116;2022-08-19T02:12:46;18.70;99.90
33328;DHT22;19692;52.998;9.116;2022-08-19T02:15:13;18.80;99.90
33328;DHT22;19692;52.998;9.116;2022-08-19T02:17:39;18.60;99.90
33328;DHT22;19692;52.998;9.116;2022-08-19T02:20:06;18.40;99.90
33328;DHT22;19692;52.998;9.116;2022-08-19T02:22:32;18.30;99.90
33328;DHT22;19692;52.998;9.116;2022-08-19T02:24:58;18.10;99.90
33328;DHT22;19692;52.998;9.116;2022-08-19T02:27:25;18.00;99.90
33328;DHT22;19692;52.998;9.116;2022-08-19T02:29:51;18.00;99.90
33328;DHT22;19692;52.998;9.116;2022-08-19T02:32:18;17.90;99.90
33328;DHT22;19692;52.998;9.116;2022-08-19T02:34:47;17.90;99.90
33328;DHT22;19692;52.998;9.116;2022-08-19T02:37:13;17.80;99.90
33328;DHT22;19692;52.998;9.116;2022-08-19T02:39:58;17.80;99.90
33328;DHT22;19692;52.998;9.116;2022-08-19T02:42:24;17.90;99.90
33328;DHT22;19692;52.998;9.116;2022-08-19T02:44:50;18.00;99.90
33328;DHT22;19692;52.998;9.116;2022-08-19T02:47:17;18.10;99.90
33328;DHT22;19692;52.998;9.116;2022-08-19T02:49:44;18.20;99.90
33328;DHT22;19692;52.998;9.116;2022-08-19T02:52:11;18.30;99.90
33328;DHT22;19692;52.998;9.116;2022-08-19T02:54:37;18.30;99.90
33328;DHT22;19692;52.998;9.116;2022-08-19T02:57:04;18.40;99.90
33328;DHT22;19692;52.998;9.116;2022-08-19T02:59:31;18.50;99.90
33328;DHT22;19692;52.998;9.116;2022-08-19T03:01:57;18.40;99.90
33328;DHT22;19692;52.998;9.116;2022-08-19T03:04:23;18.40;99.90
33328;DHT22;19692;52.998;9.116;2022-08-19T03:06:49;18.40;99.90
33328;DHT22;19692;52.998;9.116;2022-08-19T03:09:18;18.50;99.90
33328;DHT22;19692;52.998;9.116;2022-08-19T03:11:44;18.50;99.90
33328;DHT22;19692;52.998;9.116;2022-08-19T03:14:11;18.50;99.90
33328;DHT22;19692;52.998;9.116;2022-08-19T03:16:55;18.50;99.90
33328;DHT22;19692;52.998;9.116;2022-08-19T03:19:21;18.60;99.90
33328;DHT22;19692;52.998;9.116;2022-08-19T03:21:46;18.60;99.90
33328;DHT22;19692;52.998;9.116;2022-08-19T03:24:13;18.70;99.90
33328;DHT22;19692;52.998;9.116;2022-08-19T03:26:42;18.70;99.90
33328;DHT22;19692;52.998;9.116;2022-08-19T03:29:11;18.70;99.90
33328;DHT22;19692;52.998;9.116;2022-08-19T03:31:39;18.70;99.90
33328;DHT22;19692;52.998;9.116;2022-08-19T03:34:05;18.70;99.90
33328;DHT22;19692;52.998;9.116;2022-08-19T03:36:31;18.60;99.90
33328;DHT22;19692;52.998;9.116;2022-08-19T03:38:59;18.60;99.90
33328;DHT22;19692;52.998;9.116;2022-08-19T03:41:29;18.60;99.90
33328;DHT22;19692;52.998;9.116;2022-08-19T03:43:57;18.60;99.90
33328;DHT22;19692;52.998;9.116;2022-08-19T03:46:29;18.60;99.90
33328;DHT22;19692;52.998;9.116;2022-08-19T03:48:57;18.60;99.90
33328;DHT22;19692;52.998;9.116;2022-08-19T03:51:30;18.60;99.90
33328;DHT22;19692;52.998;9.116;2022-08-19T03:54:00;18.60;99.90
33328;DHT22;19692;52.998;9.116;2022-08-19T03:56:27;18.50;99.90
33328;DHT22;19692;52.998;9.116;2022-08-19T03:58:54;18.50;99.90
33328;DHT22;19692;52.998;9.116;2022-08-19T04:01:23;18.50;99.90
33328;DHT22;19692;52.998;9.116;2022-08-19T04:03:49;18.50;99.90
33328;DHT22;19692;52.998;9.116;2022-08-19T04:06:20;18.50;99.90
33328;DHT22;19692;52.998;9.116;2022-08-19T04:08:57;18.50;99.90
33328;DHT22;19692;52.998;9.116;2022-08-19T04:11:30;18.30;99.90
33328;DHT22;19692;52.998;9.116;2022-08-19T04:13:59;18.40;99.90
33328;DHT22;19692;52.998;9.116;2022-08-19T04:16:26;18.30;99.90
33328;DHT22;19692;52.998;9.116;2022-08-19T04:18:54;18.30;99.90
33328;DHT22;19692;52.998;9.116;2022-08-19T04:21:23;18.30;99.90
33328;DHT22;19692;52.998;9.116;2022-08-19T04:23:50;18.30;99.90
33328;DHT22;19692;52.998;9.116;2022-08-19T04:26:20;18.30;99.90
33328;DHT22;19692;52.998;9.116;2022-08-19T04:28:48;18.40;99.90
33328;DHT22;19692;52.998;9.116;2022-08-19T04:31:23;18.50;99.90
33328;DHT22;19692;52.998;9.116;2022-08-19T04:33:54;18.50;99.90
33328;DHT22;19692;52.998;9.116;2022-08-19T04:36:25;18.40;99.90
33328;DHT22;19692;52.998;9.116;2022-08-19T04:38:57;18.40;99.90
33328;DHT22;19692;52.998;9.116;2022-08-19T04:41:25;18.40;99.90
33328;DHT22;19692;52.998;9.116;2022-08-19T04:44:10;18.40;99.90
33328;DHT22;19692;52.998;9.116;2022-08-19T04:46:37;18.40;99.90
33328;DHT22;19692;52.998;9.116;2022-08-19T04:49:04;18.40;99.90
33328;DHT22;19692;52.998;9.116;2022-08-19T04:51:32;18.40;99.90
33328;DHT22;19692;52.998;9.116;2022-08-19T04:53:58;18.30;99.90
33328;DHT22;19692;52.998;9.116;2022-08-19T04:56:25;18.30;99.90
33328;DHT22;19692;52.998;9.116;2022-08-19T04:58:53;18.30;99.90
33328;DHT22;19692;52.998;9.116;2022-08-19T05:01:24;18.40;99.90
33328;DHT22;19692;52.998;9.116;2022-08-19T05:03:51;18.40;99.90
33328;DHT22;19692;52.998;9.116;2022-08-19T05:06:19;18.50;99.90
33328;DHT22;19692;52.998;9.116;2022-08-19T05:08:46;18.40;99.90
33328;DHT22;19692;52.998;9.116;2022-08-19T05:11:16;18.30;99.90
33328;DHT22;19692;52.998;9.116;2022-08-19T05:13:46;18.10;99.90
33328;DHT22;19692;52.998;9.116;2022-08-19T05:16:16;18.00;99.90
33328;DHT22;19692;52.998;9.116;2022-08-19T05:18:43;18.00;99.90
33328;DHT22;19692;52.998;9.116;2022-08-19T05:21:28;18.00;99.90
33328;DHT22;19692;52.998;9.116;2022-08-19T05:24:14;18.20;99.90
33328;DHT22;19692;52.998;9.116;2022-08-19T05:26:42;18.20;99.90
33328;DHT22;19692;52.998;9.116;2022-08-19T05:29:12;18.20;99.90
33328;DHT22;19692;52.998;9.116;2022-08-19T05:31:40;18.10;99.90
33328;DHT22;19692;52.998;9.116;2022-08-19T05:34:06;18.10;99.90
33328;DHT22;19692;52.998;9.116;2022-08-19T05:36:38;18.10;99.90
33328;DHT22;19692;52.998;9.116;2022-08-19T05:39:07;18.20;99.90
33328;DHT22;19692;52.998;9.116;2022-08-19T05:41:34;18.30;99.90
33328;DHT22;19692;52.998;9.116;2022-08-19T05:44:04;18.30;99.90
33328;DHT22;19692;52.998;9.116;2022-08-19T05:46:38;18.50;99.90
33328;DHT22;19692;52.998;9.116;2022-08-19T05:49:07;18.50;99.90
33328;DHT22;19692;52.998;9.116;2022-08-19T05:51:35;18.60;99.90
33328;DHT22;19692;52.998;9.116;2022-08-19T05:54:03;18.60;99.90
33328;DHT22;19692;52.998;9.116;2022-08-19T05:56:30;18.60;99.90
33328;DHT22;19692;52.998;9.116;2022-08-19T05:58:57;18.60;99.90
33328;DHT22;19692;52.998;9.116;2022-08-19T06:01:24;18.60;99.90
33328;DHT22;19692;52.998;9.116;2022-08-19T06:03:51;18.60;99.90
33328;DHT22;19692;52.998;9.116;2022-08-19T06:06:18;18.50;99.90
33328;DHT22;19692;52.998;9.116;2022-08-19T06:08:45;18.40;99.90
33328;DHT22;19692;52.998;9.116;2022-08-19T06:11:17;18.50;99.90
33328;DHT22;19692;52.998;9.116;2022-08-19T06:13:43;18.50;99.90
33328;DHT22;19692;52.998;9.116;2022-08-19T06:16:16;18.60;99.90
33328;DHT22;19692;52.998;9.116;2022-08-19T06:18:48;18.60;99.90
33328;DHT22;19692;52.998;9.116;2022-08-19T06:21:19;18.60;99.90
33328;DHT22;19692;52.998;9.116;2022-08-19T06:23:46;18.60;99.90
33328;DHT22;19692;52.998;9.116;2022-08-19T06:26:13;18.60;99.90
33328;DHT22;19692;52.998;9.116;2022-08-19T06:28:40;18.70;99.90
33328;DHT22;19692;52.998;9.116;2022-08-19T06:31:19;18.80;99.90
33328;DHT22;19692;52.998;9.116;2022-08-19T06:33:51;19.00;99.90
33328;DHT22;19692;52.998;9.116;2022-08-19T06:36:28;19.00;99.90
33328;DHT22;19692;52.998;9.116;2022-08-19T06:39:05;19.10;99.90
33328;DHT22;19692;52.998;9.116;2022-08-19T06:41:38;19.20;99.90
33328;DHT22;19692;52.998;9.116;2022-08-19T06:44:06;19.20;99.90
33328;DHT22;19692;52.998;9.116;2022-08-19T06:46:32;19.20;99.90
33328;DHT22;19692;52.998;9.116;2022-08-19T06:48:58;19.20;99.90
33328;DHT22;19692;52.998;9.116;2022-08-19T06:51:25;19.20;99.90
33328;DHT22;19692;52.998;9.116;2022-08-19T06:53:53;19.20;99.90
33328;DHT22;19692;52.998;9.116;2022-08-19T06:56:23;19.30;99.90
33328;DHT22;19692;52.998;9.116;2022-08-19T06:58:56;19.40;99.90
33328;DHT22;19692;52.998;9.116;2022-08-19T07:01:23;19.60;99.90
33328;DHT22;19692;52.998;9.116;2022-08-19T07:03:48;19.60;99.90
33328;DHT22;19692;52.998;9.116;2022-08-19T07:06:16;19.60;99.90
33328;DHT22;19692;52.998;9.116;2022-08-19T07:08:44;19.60;99.90
33328;DHT22;19692;52.998;9.116;2022-08-19T07:11:15;19.70;99.90
33328;DHT22;19692;52.998;9.116;2022-08-19T07:13:45;19.70;99.90
33328;DHT22;19692;52.998;9.116;2022-08-19T07:16:16;19.60;99.90
33328;DHT22;19692;52.998;9.116;2022-08-19T07:18:44;19.50;99.90
33328;DHT22;19692;52.998;9.116;2022-08-19T07:21:20;19.60;99.90
33328;DHT22;19692;52.998;9.116;2022-08-19T07:23:48;19.70;99.90
33328;DHT22;19692;52.998;9.116;2022-08-19T07:26:21;19.80;99.90
33328;DHT22;19692;52.998;9.116;2022-08-19T07:28:48;19.90;99.90
33328;DHT22;19692;52.998;9.116;2022-08-19T07:31:21;20.10;99.90
33328;DHT22;19692;52.998;9.116;2022-08-19T07:33:49;20.10;99.90
33328;DHT22;19692;52.998;9.116;2022-08-19T07:36:20;20.20;99.90
33328;DHT22;19692;52.998;9.116;2022-08-19T07:38:49;20.30;99.90
33328;DHT22;19692;52.998;9.116;2022-08-19T07:41:20;20.30;99.90
33328;DHT22;19692;52.998;9.116;2022-08-19T07:43:48;20.40;99.90
33328;DHT22;19692;52.998;9.116;2022-08-19T07:46:15;20.30;99.90
33328;DHT22;19692;52.998;9.116;2022-08-19T07:48:43;20.20;99.90
33328;DHT22;19692;52.998;9.116;2022-08-19T07:51:15;20.20;99.90
33328;DHT22;19692;52.998;9.116;2022-08-19T07:53:43;20.20;99.90
33328;DHT22;19692;52.998;9.116;2022-08-19T07:56:11;20.40;99.90
33328;DHT22;19692;52.998;9.116;2022-08-19T07:58:41;20.60;99.90
33328;DHT22;19692;52.998;9.116;2022-08-19T08:01:12;20.80;99.90
33328;DHT22;19692;52.998;9.116;2022-08-19T08:03:40;20.70;99.90
33328;DHT22;19692;52.998;9.116;2022-08-19T08:06:25;20.80;99.90
33328;DHT22;19692;52.998;9.116;2022-08-19T08:09:11;20.70;99.90
33328;DHT22;19692;52.998;9.116;2022-08-19T08:11:50;20.80;99.90
33328;DHT22;19692;52.998;9.116;2022-08-19T08:14:29;21.00;99.90
33328;DHT22;19692;52.998;9.116;2022-08-19T08:16:57;21.40;99.90
33328;DHT22;19692;52.998;9.116;2022-08-19T08:19:24;21.80;99.90
33328;DHT22;19692;52.998;9.116;2022-08-19T08:21:54;21.60;99.90
33328;DHT22;19692;52.998;9.116;2022-08-19T08:24:20;21.50;99.90
33328;DHT22;19692;52.998;9.116;2022-08-19T08:26:47;21.60;99.90
33328;DHT22;19692;52.998;9.116;2022-08-19T08:29:13;22.00;99.90
33328;DHT22;19692;52.998;9.116;2022-08-19T08:31:41;22.40;99.90
33328;DHT22;19692;52.998;9.116;2022-08-19T08:34:09;22.60;99.90
33328;DHT22;19692;52.998;9.116;2022-08-19T08:36:40;22.90;99.90
33328;DHT22;19692;52.998;9.116;2022-08-19T08:39:09;22.90;99.90
33328;DHT22;19692;52.998;9.116;2022-08-19T08:41:53;22.90;99.90
33328;DHT22;19692;52.998;9.116;2022-08-19T08:44:43;22.70;99.90
33328;DHT22;19692;52.998;9.116;2022-08-19T08:47:18;22.70;99.90
33328;DHT22;19692;52.998;9.116;2022-08-19T08:54:54;22.80;99.90
33328;DHT22;19692;52.998;9.116;2022-08-19T08:57:28;22.80;99.90
33328;DHT22;19692;52.998;9.116;2022-08-19T08:59:57;22.70;99.90
33328;DHT22;19692;52.998;9.116;2022-08-19T09:02:26;22.60;99.90
33328;DHT22;19692;52.998;9.116;2022-08-19T09:04:53;22.60;99.90
33328;DHT22;19692;52.998;9.116;2022-08-19T09:10:22;22.90;99.90
33328;DHT22;19692;52.998;9.116;2022-08-19T09:15:46;22.60;99.90
33328;DHT22;19692;52.998;9.116;2022-08-19T09:18:14;22.60;99.90
33328;DHT22;19692;52.998;9.116;2022-08-19T09:20:42;22.60;99.90
33328;DHT22;19692;52.998;9.116;2022-08-19T09:23:08;22.70;99.90
33328;DHT22;19692;52.998;9.116;2022-08-19T09:25:34;22.90;99.90
33328;DHT22;19692;52.998;9.116;2022-08-19T09:28:01;22.70;99.90
33328;DHT22;19692;52.998;9.116;2022-08-19T09:30:34;22.50;99.90
33328;DHT22;19692;52.998;9.116;2022-08-19T09:33:05;22.40;99.90
33328;DHT22;19692;52.998;9.116;2022-08-19T09:35:31;22.60;99.90
33328;DHT22;19692;52.998;9.116;2022-08-19T09:37:58;22.50;99.90
33328;DHT22;19692;52.998;9.116;2022-08-19T09:40:24;22.50;99.90
33328;DHT22;19692;52.998;9.116;2022-08-19T09:42:51;22.50;99.90
33328;DHT22;19692;52.998;9.116;2022-08-19T09:45:20;22.70;99.90
33328;DHT22;19692;52.998;9.116;2022-08-19T09:47:48;22.70;99.90
33328;DHT22;19692;52.998;9.116;2022-08-19T09:50:17;22.80;99.90
33328;DHT22;19692;52.998;9.116;2022-08-19T09:52:44;22.60;99.90
33328;DHT22;19692;52.998;9.116;2022-08-19T09:55:10;22.60;99.90
33328;DHT22;19692;52.998;9.116;2022-08-19T09:57:37;22.50;99.90
33328;DHT22;19692;52.998;9.116;2022-08-19T10:00:05;22.80;99.90
33328;DHT22;19692;52.998;9.116;2022-08-19T10:02:33;23.20;99.90
33328;DHT22;19692;52.998;9.116;2022-08-19T10:04:58;23.40;99.90
33328;DHT22;19692;52.998;9.116;2022-08-19T10:07:56;23.40;99.90
33328;DHT22;19692;52.998;9.116;2022-08-19T10:10:22;23.70;99.90
33328;DHT22;19692;52.998;9.116;2022-08-19T10:12:49;23.90;99.90
33328;DHT22;19692;52.998;9.116;2022-08-19T10:15:15;23.80;99.90
33328;DHT22;19692;52.998;9.116;2022-08-19T10:17:41;23.90;99.90
33328;DHT22;19692;52.998;9.116;2022-08-19T10:20:08;23.90;99.90
33328;DHT22;19692;52.998;9.116;2022-08-19T10:22:34;23.60;99.90
33328;DHT22;19692;52.998;9.116;2022-08-19T10:25:03;23.50;99.90
33328;DHT22;19692;52.998;9.116;2022-08-19T10:27:30;23.50;99.90
33328;DHT22;19692;52.998;9.116;2022-08-19T10:29:56;23.50;99.90
33328;DHT22;19692;52.998;9.116;2022-08-19T10:32:22;23.70;99.90
33328;DHT22;19692;52.998;9.116;2022-08-19T10:34:48;24.10;99.90
33328;DHT22;19692;52.998;9.116;2022-08-19T10:37:16;24.30;99.90
33328;DHT22;19692;52.998;9.116;2022-08-19T10:39:45;24.50;99.90
33328;DHT22;19692;52.998;9.116;2022-08-19T10:42:13;24.80;99.90
33328;DHT22;19692;52.998;9.116;2022-08-19T10:44:39;25.30;99.90
33328;DHT22;19692;52.998;9.116;2022-08-19T10:47:06;25.90;99.90
33328;DHT22;19692;52.998;9.116;2022-08-19T10:49:31;26.10;99.90
33328;DHT22;19692;52.998;9.116;2022-08-19T10:52:17;26.50;99.90
33328;DHT22;19692;52.998;9.116;2022-08-19T10:55:04;26.70;99.90
33328;DHT22;19692;52.998;9.116;2022-08-19T10:57:50;26.80;99.90
33328;DHT22;19692;52.998;9.116;2022-08-19T11:00:17;27.00;99.90
33328;DHT22;19692;52.998;9.116;2022-08-19T11:02:43;27.30;99.90
33328;DHT22;19692;52.998;9.116;2022-08-19T11:05:09;27.50;99.90
33328;DHT22;19692;52.998;9.116;2022-08-19T11:07:38;27.10;99.90
33328;DHT22;19692;52.998;9.116;2022-08-19T11:10:05;27.00;99.90
33328;DHT22;19692;52.998;9.116;2022-08-19T11:12:32;26.60;99.90
33328;DHT22;19692;52.998;9.116;2022-08-19T11:14:58;26.70;99.90
33328;DHT22;19692;52.998;9.116;2022-08-19T11:17:24;27.10;99.90
33328;DHT22;19692;52.998;9.116;2022-08-19T11:19:50;27.60;99.90
33328;DHT22;19692;52.998;9.116;2022-08-19T11:22:15;27.90;99.90
33328;DHT22;19692;52.998;9.116;2022-08-19T11:24:42;27.70;99.90
33328;DHT22;19692;52.998;9.116;2022-08-19T11:27:09;28.00;99.90
33328;DHT22;19692;52.998;9.116;2022-08-19T11:29:37;28.30;99.90
33328;DHT22;19692;52.998;9.116;2022-08-19T11:32:06;28.20;99.90
33328;DHT22;19692;52.998;9.116;2022-08-19T11:34:34;28.30;99.90
33328;DHT22;19692;52.998;9.116;2022-08-19T11:37:01;28.50;99.90
33328;DHT22;19692;52.998;9.116;2022-08-19T11:39:30;28.50;99.90
33328;DHT22;19692;52.998;9.116;2022-08-19T11:42:00;28.60;99.90
33328;DHT22;19692;52.998;9.116;2022-08-19T11:44:49;28.60;99.90
33328;DHT22;19692;52.998;9.116;2022-08-19T11:47:15;28.20;99.90
33328;DHT22;19692;52.998;9.116;2022-08-19T11:49:41;28.10;99.90
33328;DHT22;19692;52.998;9.116;2022-08-19T11:52:07;28.30;99.90
33328;DHT22;19692;52.998;9.116;2022-08-19T11:54:34;28.00;99.90
33328;DHT22;19692;52.998;9.116;2022-08-19T11:57:03;28.20;99.90
33328;DHT22;19692;52.998;9.116;2022-08-19T11:59:29;28.70;99.90
33328;DHT22;19692;52.998;9.116;2022-08-19T12:01:55;29.30;99.90
33328;DHT22;19692;52.998;9.116;2022-08-19T12:06:56;29.60;99.90
33328;DHT22;19692;52.998;9.116;2022-08-19T12:09:22;29.80;99.90
33328;DHT22;19692;52.998;9.116;2022-08-19T12:11:48;29.80;99.20
33328;DHT22;19692;52.998;9.116;2022-08-19T12:14:13;29.70;98.90
33328;DHT22;19692;52.998;9.116;2022-08-19T12:16:40;29.70;99.10
33328;DHT22;19692;52.998;9.116;2022-08-19T12:19:07;29.80;97.10
33328;DHT22;19692;52.998;9.116;2022-08-19T12:21:35;29.60;95.70
33328;DHT22;19692;52.998;9.116;2022-08-19T12:24:01;29.50;96.60
33328;DHT22;19692;52.998;9.116;2022-08-19T12:26:29;29.10;97.40
33328;DHT22;19692;52.998;9.116;2022-08-19T12:28:57;28.70;97.80
33328;DHT22;19692;52.998;9.116;2022-08-19T12:31:26;28.90;97.00
33328;DHT22;19692;52.998;9.116;2022-08-19T12:33:56;29.10;95.70
33328;DHT22;19692;52.998;9.116;2022-08-19T12:36:25;29.20;96.20
33328;DHT22;19692;52.998;9.116;2022-08-19T12:38:53;29.50;94.90
33328;DHT22;19692;52.998;9.116;2022-08-19T12:41:19;29.50;94.80
33328;DHT22;19692;52.998;9.116;2022-08-19T12:43:47;28.80;96.40
33328;DHT22;19692;52.998;9.116;2022-08-19T12:46:15;29.00;97.10
33328;DHT22;19692;52.998;9.116;2022-08-19T12:48:41;29.30;95.20
33328;DHT22;19692;52.998;9.116;2022-08-19T12:51:13;29.30;94.90
33328;DHT22;19692;52.998;9.116;2022-08-19T12:53:41;29.50;95.40
33328;DHT22;19692;52.998;9.116;2022-08-19T12:56:09;29.60;94.10
33328;DHT22;19692;52.998;9.116;2022-08-19T12:58:36;29.80;94.00
33328;DHT22;19692;52.998;9.116;2022-08-19T13:01:14;30.20;94.00
33328;DHT22;19692;52.998;9.116;2022-08-19T13:03:41;30.50;94.20
33328;DHT22;19692;52.998;9.116;2022-08-19T13:06:09;30.60;94.00
33328;DHT22;19692;52.998;9.116;2022-08-19T13:08:35;30.60;93.50
33328;DHT22;19692;52.998;9.116;2022-08-19T13:11:13;30.50;92.40
33328;DHT22;19692;52.998;9.116;2022-08-19T13:13:44;30.40;92.80
33328;DHT22;19692;52.998;9.116;2022-08-19T13:16:11;29.90;92.70
33328;DHT22;19692;52.998;9.116;2022-08-19T13:18:40;29.80;91.10
33328;DHT22;19692;52.998;9.116;2022-08-19T13:21:09;29.70;91.70
33328;DHT22;19692;52.998;9.116;2022-08-19T13:23:38;29.00;94.00
33328;DHT22;19692;52.998;9.116;2022-08-19T13:26:06;29.10;93.60
33328;DHT22;19692;52.998;9.116;2022-08-19T13:28:34;29.50;93.30
33328;DHT22;19692;52.998;9.116;2022-08-19T13:31:20;29.80;93.80
33328;DHT22;19692;52.998;9.116;2022-08-19T13:34:07;29.80;93.20
33328;DHT22;19692;52.998;9.116;2022-08-19T13:36:34;29.90;93.70
33328;DHT22;19692;52.998;9.116;2022-08-19T13:39:00;30.20;93.30
33328;DHT22;19692;52.998;9.116;2022-08-19T13:41:26;30.50;93.00
33328;DHT22;19692;52.998;9.116;2022-08-19T13:43:53;30.60;93.00
33328;DHT22;19692;52.998;9.116;2022-08-19T13:46:32;30.70;92.70
33328;DHT22;19692;52.998;9.116;2022-08-19T13:49:04;30.70;92.10
33328;DHT22;19692;52.998;9.116;2022-08-19T13:51:46;30.60;91.50
33328;DHT22;19692;52.998;9.116;2022-08-19T13:54:32;30.70;91.40
33328;DHT22;19692;52.998;9.116;2022-08-19T13:57:14;30.40;91.60
33328;DHT22;19692;52.998;9.116;2022-08-19T14:00:06;30.30;92.30
33328;DHT22;19692;52.998;9.116;2022-08-19T14:02:49;30.00;92.00
33328;DHT22;19692;52.998;9.116;2022-08-19T14:05:30;30.10;91.70
33328;DHT22;19692;52.998;9.116;2022-08-19T14:08:25;30.10;91.70
33328;DHT22;19692;52.998;9.116;2022-08-19T14:11:15;29.80;91.60
33328;DHT22;19692;52.998;9.116;2022-08-19T14:14:17;29.60;92.40
33328;DHT22;19692;52.998;9.116;2022-08-19T14:19:32;30.00;91.20
33328;DHT22;19692;52.998;9.116;2022-08-19T14:21:58;30.20;91.10
33328;DHT22;19692;52.998;9.116;2022-08-19T14:24:24;30.30;91.10
33328;DHT22;19692;52.998;9.116;2022-08-19T14:26:54;30.30;91.40
33328;DHT22;19692;52.998;9.116;2022-08-19T14:29:20;30.10;91.50
33328;DHT22;19692;52.998;9.116;2022-08-19T14:32:15;30.10;91.40
33328;DHT22;19692;52.998;9.116;2022-08-19T14:34:42;30.10;90.90
33328;DHT22;19692;52.998;9.116;2022-08-19T14:37:14;29.60;90.70
33328;DHT22;19692;52.998;9.116;2022-08-19T14:39:43;28.80;91.40
33328;DHT22;19692;52.998;9.116;2022-08-19T14:42:14;29.00;91.00
33328;DHT22;19692;52.998;9.116;2022-08-19T14:45:05;29.10;91.20
33328;DHT22;19692;52.998;9.116;2022-08-19T14:48:10;29.10;91.80
33328;DHT22;19692;52.998;9.116;2022-08-19T14:50:48;29.40;87.60
33328;DHT22;19692;52.998;9.116;2022-08-19T14:53:33;29.00;84.80
33328;DHT22;19692;52.998;9.116;2022-08-19T14:56:13;28.80;86.50
33328;DHT22;19692;52.998;9.116;2022-08-19T14:59:04;28.40;84.60
33328;DHT22;19692;52.998;9.116;2022-08-19T15:01:50;28.50;84.80
33328;DHT22;19692;52.998;9.116;2022-08-19T15:04:33;28.80;82.10
33328;DHT22;19692;52.998;9.116;2022-08-19T15:06:59;29.10;80.60
33328;DHT22;19692;52.998;9.116;2022-08-19T15:09:34;29.20;79.00
33328;DHT22;19692;52.998;9.116;2022-08-19T15:12:12;29.00;77.70
33328;DHT22;19692;52.998;9.116;2022-08-19T15:14:39;28.50;80.40
33328;DHT22;19692;52.998;9.116;2022-08-19T15:17:07;28.50;79.10
33328;DHT22;19692;52.998;9.116;2022-08-19T15:19:36;28.60;80.00
33328;DHT22;19692;52.998;9.116;2022-08-19T15:22:20;28.80;79.50
33328;DHT22;19692;52.998;9.116;2022-08-19T15:24:57;29.30;79.50
33328;DHT22;19692;52.998;9.116;2022-08-19T15:27:28;29.50;78.90
33328;DHT22;19692;52.998;9.116;2022-08-19T15:29:58;29.60;78.70
33328;DHT22;19692;52.998;9.116;2022-08-19T15:32:24;29.70;79.40
33328;DHT22;19692;52.998;9.116;2022-08-19T15:34:51;29.70;79.80
33328;DHT22;19692;52.998;9.116;2022-08-19T15:37:17;29.60;79.50
33328;DHT22;19692;52.998;9.116;2022-08-19T15:39:58;29.50;79.60
33328;DHT22;19692;52.998;9.116;2022-08-19T15:42:30;29.80;79.60
33328;DHT22;19692;52.998;9.116;2022-08-19T15:44:56;29.80;80.40
33328;DHT22;19692;52.998;9.116;2022-08-19T15:47:22;29.90;80.20
33328;DHT22;19692;52.998;9.116;2022-08-19T15:49:55;30.00;79.30
33328;DHT22;19692;52.998;9.116;2022-08-19T15:52:26;30.10;79.10
33328;DHT22;19692;52.998;9.116;2022-08-19T15:55:12;30.10;80.00
33328;DHT22;19692;52.998;9.116;2022-08-19T15:57:41;29.80;81.10
33328;DHT22;19692;52.998;9.116;2022-08-19T16:00:25;29.50;81.80
33328;DHT22;19692;52.998;9.116;2022-08-19T16:03:15;29.60;82.00
33328;DHT22;19692;52.998;9.116;2022-08-19T16:05:59;29.90;81.50